Time;durP1;ratioP1;P1;durP2;ratioP2;P2;SDS_P1;SDS_P2;PMS_P1;PMS_P2;Temp;Humidity;BMP_temperature;BMP_pressure;BME280_temperature;BME280_humidity;BME280_pressure;Samples;Min_cycle;Max_cycle;Signal;HPM_P1;HPM_P2
2021/03/12 00:02:04;;;;;;;3.03;1.83;;;6.60;99.90;;;;;;5046455;28;20480;-82
2021/03/12 00:04:32;;;;;;;5.03;3.10;;;6.60;99.90;;;;;;5045916;28;20447;-83
2021/03/12 00:06:59;;;;;;;3.67;2.17;;;6.60;99.90;;;;;;5044193;28;20440;-82
2021/03/12 00:09:25;;;;;;;8.20;2.30;;;6.60;99.90;;;;;;5046143;28;20464;-83
2021/03/12 00:11:52;;;;;;;3.60;2.27;;;6.70;99.90;;;;;;5045139;28;20467;-80
2021/03/12 00:14:19;;;;;;;3.80;2.50;;;6.70;99.90;;;;;;5051058;28;20469;-81
2021/03/12 00:16:45;;;;;;;4.03;2.50;;;6.70;99.90;;;;;;5046972;28;20491;-83
2021/03/12 00:19:13;;;;;;;6.10;2.43;;;6.70;99.90;;;;;;5044032;28;21060;-81
2021/03/12 00:21:40;;;;;;;5.03;2.03;;;6.70;99.90;;;;;;5043076;28;20454;-82
2021/03/12 00:24:10;;;;;;;3.10;1.97;;;6.70;99.90;;;;;;5040581;28;20649;-83
2021/03/12 00:26:36;;;;;;;4.63;1.77;;;6.70;99.90;;;;;;5039203;28;20440;-81
2021/03/12 00:29:06;;;;;;;5.30;2.47;;;6.80;99.90;;;;;;5039365;28;20492;-83
2021/03/12 00:31:36;;;;;;;5.23;2.20;;;6.70;99.90;;;;;;5034803;28;20452;-81
2021/03/12 00:34:03;;;;;;;4.00;2.30;;;6.70;99.90;;;;;;5034890;28;20466;-83
2021/03/12 00:36:32;;;;;;;4.03;2.60;;;6.60;99.90;;;;;;5046984;28;20480;-82
2021/03/12 00:39:01;;;;;;;5.77;2.27;;;6.70;99.90;;;;;;5045285;28;21238;-83
2021/03/12 00:41:28;;;;;;;6.93;2.27;;;6.70;99.90;;;;;;5044909;28;20476;-82
2021/03/12 00:43:54;;;;;;;6.80;2.50;;;6.70;99.90;;;;;;5040346;28;20491;-83
2021/03/12 00:46:26;;;;;;;3.97;2.17;;;6.80;99.90;;;;;;5045907;28;20500;-82
2021/03/12 00:48:53;;;;;;;4.37;2.10;;;6.60;99.90;;;;;;5042568;28;20437;-83
2021/03/12 00:51:20;;;;;;;6.03;2.10;;;6.50;99.90;;;;;;5039881;28;20450;-83
2021/03/12 00:53:47;;;;;;;5.67;2.20;;;6.50;99.90;;;;;;5049751;28;20473;-83
2021/03/12 00:56:15;;;;;;;3.67;2.23;;;6.40;99.90;;;;;;5049111;28;20439;-83
2021/03/12 00:58:42;;;;;;;4.43;2.37;;;6.30;99.90;;;;;;5048085;28;20456;-81
2021/03/12 01:01:08;;;;;;;5.23;2.07;;;6.30;99.90;;;;;;5043971;28;20512;-81
2021/03/12 01:03:35;;;;;;;3.53;1.80;;;6.20;99.90;;;;;;5052499;28;20484;-81
2021/03/12 01:06:01;;;;;;;3.17;1.80;;;6.10;99.90;;;;;;5043758;28;20471;-81
2021/03/12 01:08:28;;;;;;;7.40;2.57;;;6.10;99.90;;;;;;5046390;28;20536;-84
2021/03/12 01:10:56;;;;;;;4.97;2.00;;;6.00;99.90;;;;;;5053085;28;20477;-82
2021/03/12 01:13:22;;;;;;;5.90;1.70;;;6.10;99.90;;;;;;5054320;28;20488;-83
2021/03/12 01:15:49;;;;;;;1.80;1.63;;;6.10;99.90;;;;;;5051682;28;20463;-83
2021/03/12 01:18:17;;;;;;;3.97;2.00;;;6.20;99.90;;;;;;5050566;28;20467;-80
2021/03/12 01:20:44;;;;;;;2.97;1.60;;;6.40;99.90;;;;;;5051749;28;20486;-82
2021/03/12 01:23:12;;;;;;;5.67;3.33;;;6.50;99.90;;;;;;5049874;28;20503;-83
2021/03/12 01:25:41;;;;;;;4.70;1.53;;;6.60;99.90;;;;;;5051083;28;20535;-83
2021/03/12 01:28:09;;;;;;;3.67;1.37;;;6.60;99.90;;;;;;5032050;28;20480;-81
2021/03/12 01:30:37;;;;;;;3.37;1.80;;;6.70;99.90;;;;;;5038180;28;20460;-82
2021/03/12 01:33:04;;;;;;;6.43;2.10;;;6.70;99.90;;;;;;5049340;28;20477;-82
2021/03/12 01:35:32;;;;;;;0.97;0.60;;;6.30;99.90;;;;;;5046710;28;20440;-84
2021/03/12 01:37:59;;;;;;;0.80;0.53;;;4.50;99.90;;;;;;5045069;28;20477;-81
2021/03/12 01:40:29;;;;;;;0.80;0.43;;;3.70;99.90;;;;;;5044173;28;20458;-82
2021/03/12 01:42:57;;;;;;;2.27;0.60;;;3.40;99.90;;;;;;5044003;28;20514;-82
2021/03/12 01:45:31;;;;;;;0.50;0.50;;;3.40;99.90;;;;;;5042988;28;20465;-83
2021/03/12 01:47:59;;;;;;;0.63;0.63;;;3.40;99.90;;;;;;5046307;28;20453;-82
2021/03/12 01:50:26;;;;;;;2.00;0.70;;;3.30;99.90;;;;;;5038752;28;20447;-84
2021/03/12 01:52:53;;;;;;;2.10;0.93;;;3.30;99.90;;;;;;5046368;28;20478;-82
2021/03/12 01:55:26;;;;;;;2.00;0.60;;;3.20;99.90;;;;;;5047495;28;20517;-84
2021/03/12 01:57:53;;;;;;;1.03;0.50;;;3.20;99.90;;;;;;5048227;28;20471;-83
2021/03/12 02:00:22;;;;;;;2.93;0.60;;;3.20;99.90;;;;;;5051856;28;20489;-84
2021/03/12 02:02:51;;;;;;;4.13;0.80;;;3.30;99.90;;;;;;5048413;28;20451;-83
2021/03/12 02:05:18;;;;;;;1.83;0.67;;;3.20;99.90;;;;;;5053368;28;20438;-82
2021/03/12 02:07:45;;;;;;;1.90;0.80;;;3.30;99.90;;;;;;5052448;28;20498;-84
2021/03/12 02:10:17;;;;;;;0.80;0.60;;;3.30;99.90;;;;;;5047016;28;20772;-82
2021/03/12 02:12:51;;;;;;;1.63;0.50;;;3.20;99.90;;;;;;5044034;28;20524;-82
2021/03/12 02:15:28;;;;;;;1.43;0.50;;;3.30;99.90;;;;;;5042350;28;20455;-82
2021/03/12 02:18:01;;;;;;;2.50;0.50;;;3.30;99.90;;;;;;5025750;28;20574;-83
2021/03/12 02:20:41;;;;;;;1.60;0.50;;;3.20;99.90;;;;;;5033211;28;20456;-82
2021/03/12 02:23:33;;;;;;;2.73;0.60;;;3.20;99.90;;;;;;5033893;28;20502;-82
2021/03/12 02:26:04;;;;;;;0.70;0.57;;;3.20;99.90;;;;;;5041889;28;20451;-82
2021/03/12 02:28:34;;;;;;;0.50;0.50;;;3.20;99.90;;;;;;5043607;28;20449;-83
2021/03/12 02:31:02;;;;;;;1.20;0.57;;;3.10;99.90;;;;;;5030264;28;20451;-82
2021/03/12 02:33:29;;;;;;;1.17;0.60;;;3.00;99.90;;;;;;5035697;28;20455;-82
2021/03/12 02:35:57;;;;;;;0.87;0.63;;;3.00;99.90;;;;;;5043736;28;20805;-83
2021/03/12 02:38:28;;;;;;;2.10;0.73;;;3.00;99.90;;;;;;5041196;28;20506;-82
2021/03/12 02:40:57;;;;;;;1.20;1.00;;;3.10;99.90;;;;;;5032341;28;20464;-83
2021/03/12 02:43:24;;;;;;;1.07;0.80;;;3.10;99.90;;;;;;5038976;28;20513;-83
2021/03/12 02:45:53;;;;;;;3.53;1.53;;;3.10;99.90;;;;;;5035331;28;20575;-83
2021/03/12 02:48:21;;;;;;;4.93;0.60;;;3.10;99.90;;;;;;5043029;28;20458;-80
2021/03/12 02:50:48;;;;;;;1.60;0.60;;;3.20;99.90;;;;;;5037309;28;20536;-80
2021/03/12 02:53:15;;;;;;;1.70;0.90;;;3.30;99.90;;;;;;5028855;28;20961;-80
2021/03/12 02:55:42;;;;;;;2.23;0.97;;;3.30;99.90;;;;;;5030252;28;20454;-80
2021/03/12 02:58:11;;;;;;;4.07;1.17;;;3.40;99.90;;;;;;5018147;28;20467;-81
2021/03/12 03:00:38;;;;;;;2.97;1.10;;;3.40;99.90;;;;;;5042759;28;20488;-82
2021/03/12 03:03:08;;;;;;;2.70;1.00;;;3.40;99.90;;;;;;5041610;28;20459;-82
2021/03/12 03:05:36;;;;;;;1.67;0.93;;;3.30;99.90;;;;;;5041437;28;20968;-81
2021/03/12 03:08:05;;;;;;;2.73;1.20;;;3.30;99.90;;;;;;5043297;28;20896;-79
2021/03/12 03:10:34;;;;;;;1.53;1.40;;;3.20;99.90;;;;;;5023236;28;20498;-79
2021/03/12 03:13:02;;;;;;;1.30;1.00;;;3.30;99.90;;;;;;5039948;28;20451;-80
2021/03/12 03:15:31;;;;;;;0.70;0.63;;;3.20;99.90;;;;;;5038231;28;20461;-80
2021/03/12 03:17:58;;;;;;;4.43;1.20;;;3.30;99.90;;;;;;5027207;28;20518;-81
2021/03/12 03:20:27;;;;;;;0.90;0.90;;;3.20;99.90;;;;;;5024156;28;20479;-80
2021/03/12 03:22:53;;;;;;;1.77;1.13;;;3.20;99.90;;;;;;5029334;28;20497;-81
2021/03/12 03:25:20;;;;;;;2.97;1.37;;;3.20;99.90;;;;;;5030548;28;20462;-80
2021/03/12 03:27:46;;;;;;;1.40;1.30;;;3.20;99.90;;;;;;5025581;28;20493;-80
2021/03/12 03:30:15;;;;;;;1.77;1.57;;;3.20;99.90;;;;;;5037926;28;20561;-82
2021/03/12 03:32:41;;;;;;;2.30;1.10;;;3.20;99.90;;;;;;5036080;28;20504;-81
2021/03/12 03:35:09;;;;;;;4.63;1.60;;;3.20;99.90;;;;;;5045621;28;20437;-81
2021/03/12 03:37:37;;;;;;;3.83;1.50;;;3.30;99.90;;;;;;5046881;28;20470;-80
2021/03/12 03:40:06;;;;;;;2.33;1.40;;;3.30;99.90;;;;;;5041677;28;20485;-79
2021/03/12 03:42:35;;;;;;;1.87;1.13;;;3.20;99.90;;;;;;5041557;28;20902;-80
2021/03/12 03:45:04;;;;;;;4.60;1.73;;;3.30;99.90;;;;;;5029523;28;20456;-79
2021/03/12 03:47:32;;;;;;;3.97;1.63;;;3.30;99.90;;;;;;5031950;28;20493;-80
2021/03/12 03:49:59;;;;;;;7.10;1.47;;;3.30;99.90;;;;;;5030790;28;20454;-83
2021/03/12 03:52:27;;;;;;;3.33;1.27;;;3.40;99.90;;;;;;5038356;28;20458;-81
2021/03/12 03:54:55;;;;;;;1.70;1.27;;;3.40;99.90;;;;;;5040539;28;20528;-80
2021/03/12 03:57:23;;;;;;;2.50;1.73;;;3.50;99.90;;;;;;5036646;28;20641;-79
2021/03/12 03:59:50;;;;;;;4.57;1.60;;;3.50;99.90;;;;;;5036917;28;20466;-81
2021/03/12 04:02:21;;;;;;;7.03;1.80;;;3.50;99.90;;;;;;5041758;28;20459;-82
2021/03/12 04:04:49;;;;;;;4.87;1.60;;;3.50;99.90;;;;;;5039777;28;20479;-81
2021/03/12 04:07:18;;;;;;;4.37;1.57;;;3.50;99.90;;;;;;5042376;28;20450;-81
2021/03/12 04:09:48;;;;;;;6.23;1.80;;;3.60;99.90;;;;;;5041212;28;20467;-79
2021/03/12 04:12:16;;;;;;;6.03;1.70;;;3.50;99.90;;;;;;5043271;28;20457;-82
2021/03/12 04:14:46;;;;;;;2.43;1.60;;;3.50;99.90;;;;;;5044067;28;20453;-80
2021/03/12 04:17:13;;;;;;;2.40;1.63;;;3.60;99.90;;;;;;5039697;28;20460;-81
2021/03/12 04:19:40;;;;;;;6.33;2.20;;;3.60;99.90;;;;;;5035179;28;20513;-79
2021/03/12 04:22:07;;;;;;;2.70;1.30;;;3.60;99.90;;;;;;5031613;28;20456;-80
2021/03/12 04:24:36;;;;;;;5.03;2.27;;;3.60;99.90;;;;;;5030948;28;20448;-80
2021/03/12 04:27:03;;;;;;;8.53;2.47;;;3.60;99.90;;;;;;5039895;28;20521;-79
2021/03/12 04:29:31;;;;;;;3.20;1.80;;;3.50;99.90;;;;;;5040053;28;20450;-79
2021/03/12 04:31:58;;;;;;;3.20;1.93;;;3.50;99.90;;;;;;5037355;28;20472;-79
2021/03/12 04:34:25;;;;;;;4.27;2.10;;;3.40;99.90;;;;;;5040667;28;20448;-81
2021/03/12 04:36:52;;;;;;;3.97;1.97;;;3.40;99.90;;;;;;5031056;28;20443;-80
2021/03/12 04:39:20;;;;;;;3.57;2.40;;;3.40;99.90;;;;;;5038346;28;20462;-80
2021/03/12 04:41:47;;;;;;;2.50;2.20;;;3.40;99.90;;;;;;5042312;28;20532;-81
2021/03/12 04:44:14;;;;;;;5.93;2.30;;;3.40;99.90;;;;;;5020951;28;20459;-80
2021/03/12 04:46:42;;;;;;;8.13;2.00;;;3.60;99.90;;;;;;5041235;28;20455;-80
2021/03/12 04:49:10;;;;;;;6.70;2.60;;;3.60;99.90;;;;;;5046482;28;20454;-83
2021/03/12 04:51:37;;;;;;;5.13;2.10;;;3.80;99.90;;;;;;5052632;28;20465;-81
2021/03/12 04:54:07;;;;;;;7.20;2.40;;;3.80;99.90;;;;;;5055298;28;20454;-79
2021/03/12 04:56:36;;;;;;;5.17;2.20;;;3.90;99.90;;;;;;5037558;28;20518;-80
2021/03/12 04:59:03;;;;;;;4.90;1.90;;;3.80;99.90;;;;;;5046868;28;20462;-79
2021/03/12 05:01:31;;;;;;;4.10;1.93;;;3.90;99.90;;;;;;5046685;28;20463;-81
2021/03/12 05:04:04;;;;;;;5.23;1.87;;;3.70;99.90;;;;;;5047571;28;20793;-82
2021/03/12 05:06:31;;;;;;;4.97;2.13;;;3.70;99.90;;;;;;5032491;28;20458;-80
2021/03/12 05:08:58;;;;;;;4.73;1.90;;;3.80;99.90;;;;;;5032976;28;20504;-80
2021/03/12 05:11:25;;;;;;;3.97;1.70;;;3.80;99.90;;;;;;5035638;28;20563;-81
2021/03/12 05:13:52;;;;;;;3.73;2.30;;;3.70;99.90;;;;;;5034328;28;20613;-81
2021/03/12 05:16:21;;;;;;;3.23;1.87;;;3.60;99.90;;;;;;5046199;28;20454;-80
2021/03/12 05:18:48;;;;;;;2.00;1.60;;;3.60;99.90;;;;;;5037450;28;20919;-80
2021/03/12 05:21:16;;;;;;;3.73;1.73;;;3.60;99.90;;;;;;5038641;28;20454;-82
2021/03/12 05:23:42;;;;;;;7.23;1.90;;;3.60;99.90;;;;;;5046802;28;20469;-82
2021/03/12 05:26:10;;;;;;;2.50;1.40;;;3.60;99.90;;;;;;5043336;28;20470;-82
2021/03/12 05:28:36;;;;;;;3.90;1.53;;;3.60;99.90;;;;;;5035651;28;20450;-82
2021/03/12 05:31:03;;;;;;;3.87;1.53;;;3.70;99.90;;;;;;5033481;28;20451;-80
2021/03/12 05:33:31;;;;;;;5.10;1.70;;;3.70;99.90;;;;;;5039946;28;20451;-82
2021/03/12 05:35:57;;;;;;;3.70;1.63;;;3.70;99.90;;;;;;5033113;28;20459;-80
2021/03/12 05:38:25;;;;;;;2.90;2.00;;;3.60;99.90;;;;;;5040532;28;20561;-80
2021/03/12 05:40:51;;;;;;;8.37;1.57;;;3.60;99.90;;;;;;5046244;28;20501;-81
2021/03/12 05:43:19;;;;;;;5.30;1.57;;;3.60;99.90;;;;;;5039858;28;20520;-80
2021/03/12 05:45:46;;;;;;;2.50;2.00;;;3.60;99.90;;;;;;5035937;28;20541;-79
2021/03/12 05:48:13;;;;;;;4.07;1.80;;;3.80;99.90;;;;;;5042212;28;20483;-79
2021/03/12 05:50:42;;;;;;;3.20;1.80;;;3.90;99.90;;;;;;5040932;28;20482;-81
2021/03/12 05:53:09;;;;;;;10.70;2.53;;;4.00;99.90;;;;;;5044810;28;20447;-82
2021/03/12 05:55:37;;;;;;;4.20;1.80;;;4.10;99.90;;;;;;5039677;28;20551;-81
2021/03/12 05:58:04;;;;;;;1.90;1.70;;;4.20;99.90;;;;;;5043203;28;20497;-82
2021/03/12 06:00:30;;;;;;;3.57;1.40;;;4.30;99.90;;;;;;5040319;28;20477;-82
2021/03/12 06:02:57;;;;;;;2.47;1.50;;;4.40;99.90;;;;;;5035407;28;20469;-80
2021/03/12 06:05:24;;;;;;;1.47;1.23;;;4.40;99.90;;;;;;5028462;28;20541;-81
2021/03/12 06:07:50;;;;;;;3.97;1.97;;;4.30;99.90;;;;;;5037019;28;20458;-81
2021/03/12 06:10:17;;;;;;;2.80;2.33;;;4.10;99.90;;;;;;5036308;28;20501;-81
2021/03/12 06:12:44;;;;;;;2.70;1.80;;;4.10;99.90;;;;;;5031851;28;20536;-80
2021/03/12 06:15:12;;;;;;;3.60;2.00;;;4.20;99.90;;;;;;5035563;28;20469;-80
2021/03/12 06:17:40;;;;;;;3.03;2.47;;;4.30;99.90;;;;;;5033617;28;20466;-82
2021/03/12 06:20:09;;;;;;;3.45;1.80;;;4.40;99.90;;;;;;5032561;28;20510;-85
2021/03/12 06:22:37;;;;;;;3.10;1.57;;;4.40;99.90;;;;;;5038743;28;20248;-83
2021/03/12 06:25:15;;;;;;;5.37;1.93;;;4.60;99.90;;;;;;5047939;28;20515;-86
2021/03/12 06:27:45;;;;;;;5.07;1.97;;;4.60;99.90;;;;;;5036384;28;20440;-86
2021/03/12 06:30:15;;;;;;;3.10;1.90;;;4.70;99.90;;;;;;5041761;28;20467;-86
2021/03/12 06:32:45;;;;;;;1.60;1.30;;;4.70;99.90;;;;;;5037951;28;20445;-85
2021/03/12 06:35:13;;;;;;;4.70;1.73;;;4.80;99.90;;;;;;5041943;28;20480;-83
2021/03/12 06:37:40;;;;;;;2.27;1.60;;;5.00;99.90;;;;;;5038489;28;20486;-82
2021/03/12 06:40:21;;;;;;;2.40;2.00;;;5.30;95.10;;;;;;5049559;28;20492;-84
2021/03/12 06:43:03;;;;;;;4.50;2.50;;;5.30;95.40;;;;;;5048628;28;20455;-84
2021/03/12 06:45:34;;;;;;;3.00;1.70;;;5.30;92.50;;;;;;5039682;28;20462;-81
2021/03/12 06:48:16;;;;;;;3.27;1.23;;;5.30;91.00;;;;;;5040625;28;20463;-81
2021/03/12 06:50:45;;;;;;;4.00;1.50;;;5.30;89.40;;;;;;5040092;28;20451;-82
2021/03/12 06:53:19;;;;;;;4.83;1.90;;;5.30;86.30;;;;;;5044443;28;20446;-86
2021/03/12 06:55:45;;;;;;;2.97;1.80;;;5.30;82.40;;;;;;5050029;28;20440;-83
2021/03/12 06:58:14;;;;;;;3.57;1.90;;;5.30;81.40;;;;;;5047871;28;20485;-82
2021/03/12 07:00:42;;;;;;;2.10;1.70;;;5.20;78.20;;;;;;5043364;28;20452;-82
2021/03/12 07:03:27;;;;;;;2.13;1.40;;;5.20;78.10;;;;;;5042747;28;20530;-85
2021/03/12 07:05:57;;;;;;;2.77;1.40;;;5.30;75.40;;;;;;5039441;28;20470;-81
2021/03/12 07:08:40;;;;;;;4.53;2.30;;;5.60;75.20;;;;;;5040978;28;20495;-84
2021/03/12 07:11:27;;;;;;;7.83;1.53;;;6.20;72.30;;;;;;5043716;28;20447;-84
2021/03/12 07:13:55;;;;;;;2.10;1.10;;;;;;;;;;5045437;28;20451;-82
2021/03/12 07:16:23;;;;;;;3.67;1.50;;;6.20;71.70;;;;;;5043275;28;20463;-82
2021/03/12 07:18:51;;;;;;;2.43;1.80;;;5.90;70.70;;;;;;5044891;28;20479;-83
2021/03/12 07:21:20;;;;;;;3.40;1.70;;;6.00;71.60;;;;;;5044470;28;20490;-83
2021/03/12 07:23:49;;;;;;;6.40;1.33;;;6.10;71.70;;;;;;5041260;28;20455;-86
2021/03/12 07:26:16;;;;;;;3.03;1.47;;;6.20;70.70;;;;;;5046859;28;20488;-81
2021/03/12 07:28:44;;;;;;;4.77;1.80;;;6.40;70.80;;;;;;5035670;28;20450;-84
2021/03/12 07:31:12;;;;;;;2.73;1.50;;;6.50;70.60;;;;;;5045178;28;20485;-83
2021/03/12 07:33:42;;;;;;;5.83;1.30;;;6.40;69.20;;;;;;5043677;28;20461;-82
2021/03/12 07:36:10;;;;;;;5.90;1.80;;;6.30;69.50;;;;;;5040256;28;20458;-82
2021/03/12 07:38:37;;;;;;;3.97;1.60;;;6.40;69.10;;;;;;5037186;28;20465;-83
2021/03/12 07:41:05;;;;;;;4.20;1.43;;;6.40;69.00;;;;;;5039820;28;20511;-79
2021/03/12 07:43:36;;;;;;;4.90;1.47;;;6.50;69.20;;;;;;5045026;28;20891;-80
2021/03/12 07:46:04;;;;;;;7.00;2.40;;;6.50;68.70;;;;;;5039433;28;20463;-84
2021/03/12 07:48:31;;;;;;;2.20;1.23;;;6.50;68.60;;;;;;5047179;28;20497;-81
2021/03/12 07:51:10;;;;;;;5.13;1.77;;;6.40;68.60;;;;;;5043062;28;20449;-80
2021/03/12 07:53:48;;;;;;;6.43;1.53;;;6.40;68.70;;;;;;5034708;28;20446;-84
2021/03/12 07:56:15;;;;;;;3.00;1.30;;;6.60;68.60;;;;;;5038651;28;20448;-79
2021/03/12 07:58:53;;;;;;;2.47;1.20;;;6.50;67.50;;;;;;5038178;28;20472;-83
2021/03/12 08:01:20;;;;;;;3.53;1.70;;;6.50;67.10;;;;;;5041823;28;20452;-80
2021/03/12 08:06:39;;;;;;;7.50;1.60;;;6.60;67.60;;;;;;5153927;27;20538;-81
2021/03/12 08:09:38;;;;;;;9.13;1.80;;;6.70;67.30;;;;;;5146868;27;20454;-83
2021/03/12 08:12:05;;;;;;;4.70;1.90;;;6.80;67.80;;;;;;5156465;27;20441;-81
2021/03/12 08:14:32;;;;;;;3.27;1.83;;;7.00;67.40;;;;;;5154976;27;20439;-79
2021/03/12 08:19:57;;;;;;;3.27;1.63;;;7.10;66.30;;;;;;5136656;27;20457;-80
2021/03/12 08:22:44;;;;;;;3.80;1.33;;;7.20;66.30;;;;;;5143751;27;20452;-81
2021/03/12 08:25:13;;;;;;;6.00;1.63;;;7.40;66.00;;;;;;5151814;27;20471;-81
2021/03/12 08:27:45;;;;;;;3.90;1.33;;;7.30;65.90;;;;;;5151376;27;20542;-79
2021/03/12 08:30:34;;;;;;;6.50;1.70;;;7.40;65.20;;;;;;5161395;27;20506;-80
2021/03/12 08:33:06;;;;;;;7.17;1.80;;;7.30;65.20;;;;;;5147578;27;20471;-80
2021/03/12 08:35:41;;;;;;;4.17;1.53;;;7.50;64.80;;;;;;5140659;27;20503;-82
2021/03/12 08:38:41;;;;;;;2.03;1.37;;;7.50;63.00;;;;;;5140440;27;20482;-82
2021/03/12 08:41:13;;;;;;;4.10;1.23;;;7.60;63.70;;;;;;5099927;28;20452;-84
2021/03/12 08:43:47;;;;;;;7.20;1.57;;;7.80;61.80;;;;;;5095761;28;21093;-83
2021/03/12 08:46:22;;;;;;;6.83;1.60;;;7.90;62.30;;;;;;5117451;27;20491;-80
2021/03/12 08:48:53;;;;;;;3.97;1.20;;;8.20;62.20;;;;;;5143897;27;20528;-82
2021/03/12 08:51:22;;;;;;;3.47;1.40;;;8.00;60.50;;;;;;5138926;27;20461;-84
2021/03/12 08:53:51;;;;;;;2.03;1.20;;;8.00;60.60;;;;;;5145896;27;20464;-84
2021/03/12 08:56:24;;;;;;;5.77;1.63;;;7.80;60.30;;;;;;5150998;27;20516;-85
2021/03/12 08:58:51;;;;;;;7.07;1.30;;;8.00;59.20;;;;;;5154681;27;20459;-80
2021/03/12 09:01:19;;;;;;;12.33;1.90;;;8.00;58.60;;;;;;5147004;27;20454;-78
2021/03/12 09:03:50;;;;;;;6.60;1.10;;;7.90;57.40;;;;;;5134208;27;21430;-80
2021/03/12 09:06:18;;;;;;;5.30;1.40;;;8.10;57.50;;;;;;5132163;27;20484;-79
2021/03/12 09:08:47;;;;;;;2.67;1.17;;;8.30;56.50;;;;;;5147776;27;20551;-81
2021/03/12 09:11:16;;;;;;;4.10;1.47;;;8.30;56.60;;;;;;5155538;27;20489;-81
2021/03/12 09:13:44;;;;;;;1.53;1.20;;;8.30;56.20;;;;;;5146658;27;20464;-77
2021/03/12 09:16:16;;;;;;;4.80;1.50;;;8.20;55.90;;;;;;5127773;27;20533;-80
2021/03/12 09:18:43;;;;;;;6.22;1.50;;;8.20;56.30;;;;;;5129083;27;20473;-82
2021/03/12 09:21:14;;;;;;;6.35;1.60;;;8.40;56.20;;;;;;5135150;27;20942;-81
2021/03/12 09:23:42;;;;;;;5.80;2.10;;;8.10;55.60;;;;;;5139072;27;20213;-81
2021/03/12 09:26:10;;;;;;;8.83;1.50;;;8.20;56.20;;;;;;5140834;27;20484;-80
2021/03/12 09:28:37;;;;;;;4.57;1.00;;;8.30;56.60;;;;;;5133465;27;21021;-79
2021/03/12 09:31:05;;;;;;;4.93;1.70;;;8.50;56.00;;;;;;5132205;27;20439;-78
2021/03/12 09:33:34;;;;;;;2.53;1.13;;;8.40;56.10;;;;;;5138559;27;20332;-79
2021/03/12 09:36:01;;;;;;;4.10;1.30;;;8.10;56.00;;;;;;5130218;27;20441;-79
2021/03/12 09:38:38;;;;;;;3.33;1.50;;;8.30;56.50;;;;;;5121211;27;20478;-80
2021/03/12 09:41:19;;;;;;;4.37;1.17;;;8.10;56.40;;;;;;5124788;27;20453;-78
2021/03/12 09:43:57;;;;;;;4.60;1.60;;;8.10;56.50;;;;;;5122339;27;20864;-83
2021/03/12 09:46:27;;;;;;;5.03;1.67;;;8.50;56.20;;;;;;5117001;28;20537;-78
2021/03/12 09:48:54;;;;;;;4.47;1.33;;;8.80;55.60;;;;;;5134584;27;20469;-79
2021/03/12 09:51:21;;;;;;;5.77;1.17;;;8.60;55.30;;;;;;5134113;27;20444;-79
2021/03/12 09:53:50;;;;;;;1.87;1.07;;;8.40;54.80;;;;;;5132778;27;20949;-79
2021/03/12 09:56:20;;;;;;;5.10;1.30;;;8.90;55.10;;;;;;5143586;27;20454;-81
2021/03/12 09:58:47;;;;;;;4.13;1.20;;;9.10;55.00;;;;;;5135499;27;20442;-80
2021/03/12 10:01:15;;;;;;;13.23;1.47;;;9.10;54.80;;;;;;5126182;27;20461;-81
2021/03/12 10:03:42;;;;;;;2.00;1.10;;;8.70;54.80;;;;;;5141844;27;20487;-79
2021/03/12 10:06:09;;;;;;;3.30;1.40;;;8.80;55.10;;;;;;5129526;27;20572;-80
2021/03/12 10:09:01;;;;;;;7.07;1.40;;;9.00;55.00;;;;;;5134561;27;20453;-82
2021/03/12 10:11:39;;;;;;;4.40;1.87;;;8.90;54.70;;;;;;5129061;27;20519;-80
2021/03/12 10:14:34;;;;;;;7.53;1.73;;;8.90;54.00;;;;;;5127659;27;20448;-81
2021/03/12 10:17:30;;;;;;;4.53;1.27;;;9.10;53.20;;;;;;5126190;27;20455;-80
2021/03/12 10:19:59;;;;;;;3.58;1.20;;;9.10;53.30;;;;;;5133782;27;20443;-83
2021/03/12 10:22:28;;;;;;;5.43;1.73;;;8.80;53.10;;;;;;5141530;27;20690;-83
2021/03/12 10:25:05;;;;;;;2.60;1.40;;;8.60;53.80;;;;;;5134776;27;20564;-82
2021/03/12 10:27:36;;;;;;;3.93;1.27;;;8.70;53.80;;;;;;5133826;27;20471;-83
2021/03/12 10:30:17;;;;;;;5.63;1.80;;;8.70;53.80;;;;;;5136018;27;20489;-83
2021/03/12 10:32:47;;;;;;;5.30;1.97;;;9.00;53.60;;;;;;5141978;27;20546;-85
2021/03/12 10:35:26;;;;;;;6.37;1.57;;;9.10;53.00;;;;;;5147876;27;20515;-84
2021/03/12 10:37:56;;;;;;;3.77;1.27;;;9.10;52.90;;;;;;5135573;27;20451;-83
2021/03/12 10:40:45;;;;;;;3.67;0.90;;;9.60;52.80;;;;;;5137778;27;20450;-82
2021/03/12 10:43:18;;;;;;;1.87;1.30;;;9.60;53.20;;;;;;5130358;27;20452;-80
2021/03/12 10:45:50;;;;;;;3.30;1.30;;;9.60;52.00;;;;;;5130921;27;20472;-82
2021/03/12 10:48:19;;;;;;;3.47;1.10;;;9.90;51.60;;;;;;5133347;27;20460;-83
2021/03/12 10:50:52;;;;;;;2.30;1.10;;;9.80;51.50;;;;;;5134320;27;21023;-84
2021/03/12 10:53:27;;;;;;;6.30;1.40;;;9.40;51.40;;;;;;5146567;27;20476;-84
2021/03/12 10:56:03;;;;;;;4.80;1.80;;;9.60;52.00;;;;;;5136842;27;20479;-85
2021/03/12 10:58:32;;;;;;;2.50;1.00;;;9.70;51.70;;;;;;5128762;27;20456;-81
2021/03/12 11:01:06;;;;;;;10.50;1.57;;;9.70;51.70;;;;;;5133419;27;20446;-83
2021/03/12 11:03:33;;;;;;;2.53;0.90;;;9.90;51.60;;;;;;5133199;27;20546;-80
2021/03/12 11:06:04;;;;;;;3.87;1.40;;;10.10;50.70;;;;;;5133103;27;20587;-82
2021/03/12 11:08:32;;;;;;;2.78;1.10;;;10.10;50.70;;;;;;5135015;27;20552;-82
2021/03/12 11:11:01;;;;;;;6.30;1.50;;;10.10;50.80;;;;;;5128369;27;20211;-82
2021/03/12 11:13:29;;;;;;;3.00;1.50;;;9.70;52.00;;;;;;5125068;27;20460;-80
2021/03/12 11:16:05;;;;;;;3.53;1.37;;;9.50;50.90;;;;;;5126411;27;21487;-81
2021/03/12 11:18:32;;;;;;;3.37;1.20;;;9.50;52.00;;;;;;5126074;27;20830;-81
2021/03/12 11:21:03;;;;;;;3.00;1.80;;;9.40;52.10;;;;;;5122964;27;20477;-80
2021/03/12 11:23:46;;;;;;;3.60;1.20;;;9.50;52.20;;;;;;5136815;27;20557;-84
2021/03/12 11:26:35;;;;;;;2.00;0.93;;;9.30;52.10;;;;;;5132979;27;20567;-84
2021/03/12 11:29:03;;;;;;;7.73;1.40;;;9.70;51.70;;;;;;5132818;27;20454;-78
2021/03/12 11:31:29;;;;;;;3.40;1.00;;;10.10;51.50;;;;;;5127715;27;20959;-77
2021/03/12 11:33:55;;;;;;;2.10;0.87;;;10.30;50.70;;;;;;5119351;27;20467;-77
2021/03/12 11:36:22;;;;;;;3.73;1.13;;;10.30;50.40;;;;;;5127818;27;20449;-77
2021/03/12 11:38:49;;;;;;;3.43;0.90;;;10.30;51.20;;;;;;5122075;27;20481;-78
2021/03/12 11:41:16;;;;;;;3.10;1.20;;;10.30;50.60;;;;;;5126634;27;20454;-77
2021/03/12 11:43:43;;;;;;;1.90;1.10;;;10.20;50.80;;;;;;5119583;27;20510;-77
2021/03/12 11:46:09;;;;;;;2.87;0.80;;;9.80;52.20;;;;;;5130332;27;20526;-78
2021/03/12 11:48:36;;;;;;;3.87;1.53;;;9.30;54.30;;;;;;5118392;27;20809;-78
2021/03/12 11:51:02;;;;;;;7.13;1.30;;;9.30;54.90;;;;;;5118999;27;20541;-79
2021/03/12 11:53:31;;;;;;;3.43;1.03;;;9.30;54.50;;;;;;5128828;27;20449;-85
2021/03/12 11:56:02;;;;;;;4.73;1.10;;;8.60;55.30;;;;;;5145892;27;20489;-87
2021/03/12 11:58:57;;;;;;;2.13;1.00;;;8.70;55.50;;;;;;5132069;28;20507;-85
2021/03/12 12:01:35;;;;;;;3.80;1.60;;;8.90;55.10;;;;;;5147371;27;20446;-83
2021/03/12 12:06:48;;;;;;;5.40;1.50;;;9.30;55.70;;;;;;5142035;28;20479;-85
2021/03/12 12:17:59;;;;;;;4.27;1.10;;;8.80;54.80;;;;;;5131781;28;20429;-83
2021/03/12 12:20:30;;;;;;;4.13;1.43;;;9.00;55.00;;;;;;5129909;28;20560;-84
2021/03/12 12:22:57;;;;;;;6.60;1.20;;;9.40;55.30;;;;;;5139297;27;20530;-85
2021/03/12 12:28:33;;;;;;;2.17;0.97;;;9.80;53.90;;;;;;5131445;28;20723;-84
2021/03/12 12:31:05;;;;;;;5.77;1.30;;;9.80;52.70;;;;;;5129694;28;20454;-84
2021/03/12 12:33:32;;;;;;;3.33;0.97;;;9.80;52.60;;;;;;5136904;28;20457;-84
2021/03/12 12:35:59;;;;;;;3.73;1.07;;;10.00;51.00;;;;;;5139483;28;20469;-84
2021/03/12 12:38:28;;;;;;;3.00;1.10;;;10.00;50.40;;;;;;5136238;28;20553;-85
2021/03/12 12:40:55;;;;;;;4.60;1.17;;;10.00;50.40;;;;;;5131637;28;20457;-85
2021/03/12 12:43:22;;;;;;;1.47;1.00;;;10.10;50.40;;;;;;5136258;28;20512;-85
2021/03/12 12:45:49;;;;;;;3.10;1.50;;;10.30;50.50;;;;;;5133422;27;20492;-83
2021/03/12 12:48:16;;;;;;;5.97;1.50;;;10.30;50.20;;;;;;5135612;28;20444;-82
2021/03/12 12:50:45;;;;;;;2.50;1.17;;;10.20;50.60;;;;;;5142145;27;20452;-85
2021/03/12 12:53:12;;;;;;;2.63;0.83;;;10.00;50.50;;;;;;5129127;27;21038;-81
2021/03/12 12:55:40;;;;;;;1.73;1.20;;;9.80;50.90;;;;;;5141005;27;20536;-82
2021/03/12 12:58:06;;;;;;;2.80;1.27;;;9.80;50.80;;;;;;5140275;27;20441;-80
2021/03/12 13:00:37;;;;;;;9.30;1.20;;;9.80;50.90;;;;;;5135600;27;20235;-83
2021/03/12 13:03:09;;;;;;;3.10;1.07;;;9.90;50.90;;;;;;5132147;27;20938;-84
2021/03/12 13:05:46;;;;;;;3.50;1.33;;;10.00;49.90;;;;;;5140578;27;20519;-82
2021/03/12 13:08:14;;;;;;;8.07;2.23;;;10.00;49.60;;;;;;5138732;27;20475;-82
2021/03/12 13:10:42;;;;;;;4.47;1.67;;;9.80;50.50;;;;;;5134354;27;20457;-83
2021/03/12 13:13:14;;;;;;;4.30;1.17;;;9.60;50.00;;;;;;5145765;27;20497;-84
2021/03/12 13:16:13;;;;;;;5.50;1.33;;;9.30;49.90;;;;;;5137864;27;20487;-84
2021/03/12 13:18:44;;;;;;;2.97;1.33;;;9.70;49.90;;;;;;5147206;27;20461;-82
2021/03/12 13:21:12;;;;;;;1.80;1.10;;;9.80;48.60;;;;;;5134610;27;20488;-80
2021/03/12 13:23:40;;;;;;;3.20;1.13;;;10.20;48.50;;;;;;5128696;27;20483;-81
2021/03/12 13:26:07;;;;;;;5.00;1.63;;;11.10;48.90;;;;;;5132211;27;20508;-82
2021/03/12 13:28:35;;;;;;;8.50;1.50;;;11.20;47.40;;;;;;5144008;27;20515;-82
2021/03/12 13:31:11;;;;;;;1.93;1.33;;;10.80;47.00;;;;;;5129287;27;20458;-82